Time;durP1;ratioP1;P1;durP2;ratioP2;P2;SDS_P1;SDS_P2;PMS_P1;PMS_P2;Temp;Humidity;BMP_temperature;BMP_pressure;BME280_temperature;BME280_humidity;BME280_pressure;Samples;Min_cycle;Max_cycle;Signal;HPM_P1;HPM_P2
2023/08/28 00:01:05;;;;;;;0.20;0.10;;;;;;;;;;4985630;28;20103;-86
2023/08/28 00:03:34;;;;;;;0.20;0.10;;;;;;;;;;5003554;28;20124;-85
2023/08/28 00:06:00;;;;;;;0.20;0.10;;;;;;;;;;5002957;28;20061;-84
2023/08/28 00:08:26;;;;;;;0.20;0.00;;;;;;;;;;4985472;28;20041;-86
2023/08/28 00:10:53;;;;;;;0.20;0.00;;;;;;;;;;5003254;28;20103;-85
2023/08/28 00:13:19;;;;;;;0.20;0.10;;;;;;;;;;5004008;28;20041;-86
2023/08/28 00:15:45;;;;;;;0.20;0.10;;;;;;;;;;4992198;28;20606;-85
2023/08/28 00:18:11;;;;;;;0.20;0.10;;;;;;;;;;4986643;28;20346;-85
2023/08/28 00:20:37;;;;;;;0.20;0.10;;;;;;;;;;5019264;28;20091;-84
2023/08/28 00:23:03;;;;;;;0.20;0.10;;;;;;;;;;5001884;28;20056;-84
2023/08/28 00:25:32;;;;;;;0.25;0.15;;;;;;;;;;5004344;28;20038;-84
2023/08/28 00:27:58;;;;;;;0.20;0.10;;;;;;;;;;4985708;28;20129;-84
2023/08/28 00:30:24;;;;;;;0.20;0.00;;;;;;;;;;5002814;28;20128;-84
2023/08/28 00:32:53;;;;;;;0.30;0.20;;;;;;;;;;4997328;28;20497;-85
2023/08/28 00:35:22;;;;;;;0.20;0.10;;;;;;;;;;4987519;28;20037;-85
2023/08/28 00:37:50;;;;;;;0.20;0.10;;;;;;;;;;5020475;28;20109;-85
2023/08/28 00:40:24;;;;;;;0.20;0.00;;;;;;;;;;5002980;28;20064;-84
2023/08/28 00:43:02;;;;;;;0.20;0.10;;;;;;;;;;5021646;28;20038;-85
2023/08/28 00:45:29;;;;;;;0.20;0.10;;;;;;;;;;4983965;28;22369;-84
2023/08/28 00:47:55;;;;;;;0.20;0.00;;;;;;;;;;5003096;28;20041;-84
2023/08/28 00:50:21;;;;;;;0.20;0.15;;;;;;;;;;5006351;28;20053;-85
2023/08/28 00:52:47;;;;;;;0.20;0.20;;;;;;;;;;5024016;28;20048;-84
2023/08/28 00:55:13;;;;;;;0.20;0.00;;;;;;;;;;5004880;28;20034;-84
2023/08/28 00:57:39;;;;;;;0.35;0.30;;;;;;;;;;5006963;28;20111;-84
2023/08/28 01:00:06;;;;;;;0.20;0.10;;;;;;;;;;5023407;28;20041;-85
2023/08/28 01:02:32;;;;;;;0.20;0.10;;;;;;;;;;5003371;28;20092;-84
2023/08/28 01:04:58;;;;;;;0.30;0.20;;;;;;;;;;5003867;28;20556;-83
2023/08/28 01:07:42;;;;;;;0.43;0.20;;;;;;;;;;5000074;28;20041;-85
2023/08/28 01:10:38;;;;;;;0.20;0.10;;;;;;;;;;4986535;28;20034;-85
2023/08/28 01:13:16;;;;;;;0.20;0.10;;;;;;;;;;4960880;28;20084;-84
2023/08/28 01:15:42;;;;;;;0.20;0.10;;;;;;;;;;5005288;28;20049;-84
2023/08/28 01:18:09;;;;;;;0.20;0.10;;;;;;;;;;4999627;28;20049;-84
2023/08/28 01:20:36;;;;;;;0.20;0.00;;;;;;;;;;5003919;28;20049;-84
2023/08/28 01:23:05;;;;;;;0.20;0.10;;;;;;;;;;4988859;28;20077;-84
2023/08/28 01:25:34;;;;;;;0.20;0.10;;;;;;;;;;5005068;28;20108;-83
2023/08/28 01:28:00;;;;;;;0.20;0.10;;;;;;;;;;5004848;28;20524;-84
2023/08/28 01:30:28;;;;;;;0.20;0.10;;;;;;;;;;5005426;28;20460;-84
2023/08/28 01:32:54;;;;;;;0.20;0.10;;;;;;;;;;4991174;28;20042;-83
2023/08/28 01:35:26;;;;;;;0.20;0.10;;;;;;;;;;5003615;28;20033;-84
2023/08/28 01:38:04;;;;;;;0.20;0.10;;;;;;;;;;5002767;28;20056;-84
2023/08/28 01:40:33;;;;;;;0.20;0.08;;;;;;;;;;5004904;28;20136;-85
2023/08/28 01:43:00;;;;;;;0.20;0.10;;;;;;;;;;5001951;28;20038;-85
2023/08/28 01:45:26;;;;;;;0.20;0.00;;;;;;;;;;5003722;28;20037;-85
2023/08/28 01:47:52;;;;;;;0.20;0.10;;;;;;;;;;5006045;28;20033;-86
2023/08/28 01:50:21;;;;;;;0.20;0.10;;;;;;;;;;4983495;28;20042;-87
2023/08/28 01:52:47;;;;;;;0.20;0.10;;;;;;;;;;5008867;28;20401;-85
2023/08/28 01:55:13;;;;;;;1.30;0.20;;;;;;;;;;4991793;28;20045;-86
2023/08/28 01:57:39;;;;;;;0.20;0.10;;;;;;;;;;4994481;28;20864;-87
2023/08/28 02:00:06;;;;;;;0.20;0.10;;;;;;;;;;5004074;28;20564;-87
2023/08/28 02:02:32;;;;;;;0.20;0.10;;;;;;;;;;5004117;28;20425;-87
2023/08/28 02:05:07;;;;;;;0.20;0.10;;;;;;;;;;5006430;28;20037;-88
2023/08/28 02:07:33;;;;;;;0.20;0.10;;;;;;;;;;5006389;28;20099;-86
2023/08/28 02:09:59;;;;;;;0.20;0.10;;;;;;;;;;5003176;28;20087;-88
2023/08/28 02:12:25;;;;;;;0.20;0.10;;;;;;;;;;5004534;28;20045;-85
2023/08/28 02:14:51;;;;;;;0.20;0.10;;;;;;;;;;5019495;28;20057;-86
2023/08/28 02:17:17;;;;;;;0.20;0.10;;;;;;;;;;4989316;28;20037;-85
2023/08/28 02:19:43;;;;;;;0.20;0.10;;;;;;;;;;5010464;23;20041;-82
2023/08/28 02:22:09;;;;;;;0.20;0.10;;;;;;;;;;5018079;28;20083;-82
2023/08/28 02:24:35;;;;;;;0.22;0.22;;;;;;;;;;5012110;28;20045;-82
2023/08/28 02:27:02;;;;;;;0.20;0.10;;;;;;;;;;4989900;28;20072;-82
2023/08/28 02:29:28;;;;;;;0.20;0.10;;;;;;;;;;4999484;28;20048;-82
2023/08/28 02:31:54;;;;;;;0.20;0.10;;;;;;;;;;5002614;28;20037;-82
2023/08/28 02:34:20;;;;;;;0.20;0.10;;;;;;;;;;5019710;28;20051;-82
2023/08/28 02:36:46;;;;;;;0.20;0.00;;;;;;;;;;5003487;28;20041;-83
2023/08/28 02:39:13;;;;;;;0.20;0.00;;;;;;;;;;4997285;28;20056;-81
2023/08/28 02:41:39;;;;;;;1.20;0.30;;;;;;;;;;4996210;28;20120;-82
2023/08/28 02:44:05;;;;;;;0.20;0.10;;;;;;;;;;4998851;28;20120;-84
2023/08/28 02:46:31;;;;;;;0.20;0.10;;;;;;;;;;5011917;28;20033;-83
2023/08/28 02:48:57;;;;;;;0.20;0.10;;;;;;;;;;5018229;28;20433;-84
2023/08/28 02:51:23;;;;;;;0.20;0.10;;;;;;;;;;5013070;28;20044;-83
2023/08/28 02:53:49;;;;;;;0.40;0.30;;;;;;;;;;4996963;28;20069;-83
2023/08/28 02:56:23;;;;;;;0.20;0.10;;;;;;;;;;4996117;28;20516;-82
2023/08/28 02:58:50;;;;;;;0.20;0.10;;;;;;;;;;4995321;28;20025;-82
2023/08/28 03:01:17;;;;;;;0.20;0.10;;;;;;;;;;4999620;28;21076;-82
2023/08/28 03:03:43;;;;;;;0.20;0.10;;;;;;;;;;5015468;28;20064;-83
2023/08/28 03:06:09;;;;;;;0.20;0.10;;;;;;;;;;5014049;28;20336;-82
2023/08/28 03:08:35;;;;;;;0.20;0.00;;;;;;;;;;4999679;28;20068;-82
2023/08/28 03:11:01;;;;;;;0.20;0.20;;;;;;;;;;5012167;28;20091;-82
2023/08/28 03:13:27;;;;;;;0.68;0.30;;;;;;;;;;4999442;28;20037;-82
2023/08/28 03:15:53;;;;;;;0.20;0.10;;;;;;;;;;4997581;28;20033;-82
2023/08/28 03:18:19;;;;;;;0.30;0.30;;;;;;;;;;5001579;28;20040;-82
2023/08/28 03:20:46;;;;;;;0.20;0.00;;;;;;;;;;4998174;28;20049;-82
2023/08/28 03:23:12;;;;;;;0.38;0.25;;;;;;;;;;5010616;28;20037;-82
2023/08/28 03:25:38;;;;;;;0.20;0.10;;;;;;;;;;4998917;28;20093;-82
2023/08/28 03:28:07;;;;;;;0.20;0.10;;;;;;;;;;5003589;28;20044;-82
2023/08/28 03:30:34;;;;;;;0.25;0.20;;;;;;;;;;5002823;28;20045;-81
2023/08/28 03:33:00;;;;;;;0.20;0.10;;;;;;;;;;5007960;28;20045;-82
2023/08/28 03:35:26;;;;;;;0.20;0.10;;;;;;;;;;5019531;28;20048;-82
2023/08/28 03:37:52;;;;;;;0.20;0.10;;;;;;;;;;5007237;28;20057;-82
2023/08/28 03:40:18;;;;;;;0.47;0.10;;;;;;;;;;5033286;28;20098;-82
2023/08/28 03:42:44;;;;;;;0.20;0.10;;;;;;;;;;5019331;28;20441;-80
2023/08/28 03:45:10;;;;;;;0.20;0.20;;;;;;;;;;4992205;28;20029;-81
2023/08/28 03:47:36;;;;;;;0.20;0.10;;;;;;;;;;4996900;28;20124;-81
2023/08/28 03:50:02;;;;;;;0.20;0.10;;;;;;;;;;4998605;28;20041;-81
2023/08/28 03:52:28;;;;;;;0.22;0.20;;;;;;;;;;4997873;28;20049;-81
2023/08/28 03:54:54;;;;;;;0.20;0.00;;;;;;;;;;4999906;28;20048;-81
2023/08/28 03:57:20;;;;;;;0.20;0.10;;;;;;;;;;5022531;28;20033;-81
2023/08/28 03:59:46;;;;;;;0.20;0.10;;;;;;;;;;5003875;28;20068;-81
2023/08/28 04:02:12;;;;;;;0.20;0.10;;;;;;;;;;5008182;28;20116;-81
2023/08/28 04:04:38;;;;;;;0.20;0.10;;;;;;;;;;4994804;28;20045;-81
2023/08/28 04:07:04;;;;;;;0.20;0.13;;;;;;;;;;5007729;28;20049;-81
2023/08/28 04:09:30;;;;;;;0.20;0.10;;;;;;;;;;5029356;28;20049;-82
2023/08/28 04:11:56;;;;;;;0.43;0.38;;;;;;;;;;5016460;28;20075;-81
2023/08/28 04:14:23;;;;;;;0.20;0.00;;;;;;;;;;4994182;28;20486;-81
2023/08/28 04:16:53;;;;;;;0.20;0.10;;;;;;;;;;5016437;28;20060;-81
2023/08/28 04:19:19;;;;;;;0.20;0.20;;;;;;;;;;4996365;28;20033;-81
2023/08/28 04:21:45;;;;;;;0.20;0.10;;;;;;;;;;5014642;28;20856;-81
2023/08/28 04:24:11;;;;;;;0.20;0.00;;;;;;;;;;5002490;28;20049;-81
2023/08/28 04:26:37;;;;;;;0.20;0.10;;;;;;;;;;5014982;28;20045;-81
2023/08/28 04:29:03;;;;;;;0.20;0.17;;;;;;;;;;5021477;28;20041;-82
2023/08/28 04:31:30;;;;;;;0.20;0.10;;;;;;;;;;5021542;28;20057;-81
2023/08/28 04:33:56;;;;;;;0.20;0.10;;;;;;;;;;4998857;28;20041;-82
2023/08/28 04:36:22;;;;;;;0.20;0.10;;;;;;;;;;5003144;28;20120;-82
2023/08/28 04:38:48;;;;;;;0.20;0.00;;;;;;;;;;5013195;28;20121;-82
2023/08/28 04:41:14;;;;;;;0.20;0.10;;;;;;;;;;5012417;28;20041;-81
2023/08/28 04:43:40;;;;;;;0.20;0.10;;;;;;;;;;5014940;28;20068;-82
2023/08/28 04:46:06;;;;;;;0.20;0.10;;;;;;;;;;5022737;28;20233;-82
2023/08/28 04:48:32;;;;;;;0.20;0.10;;;;;;;;;;5026217;28;20037;-81
2023/08/28 04:50:58;;;;;;;0.20;0.10;;;;;;;;;;5027448;28;20033;-82
2023/08/28 04:53:24;;;;;;;0.30;0.20;;;;;;;;;;5008015;28;20067;-81
2023/08/28 04:55:50;;;;;;;0.20;0.10;;;;;;;;;;5024983;28;20418;-81
2023/08/28 04:58:16;;;;;;;0.20;0.10;;;;;;;;;;5003030;28;20044;-82
2023/08/28 05:00:42;;;;;;;0.20;0.10;;;;;;;;;;5016790;28;20052;-82
2023/08/28 05:03:08;;;;;;;0.50;0.20;;;;;;;;;;5005953;28;20034;-82
2023/08/28 05:05:34;;;;;;;0.20;0.10;;;;;;;;;;5003663;28;20048;-82
2023/08/28 05:08:01;;;;;;;0.20;0.10;;;;;;;;;;4999585;28;20049;-82
2023/08/28 05:10:27;;;;;;;0.30;0.20;;;;;;;;;;5016806;28;20088;-82
2023/08/28 05:12:53;;;;;;;0.20;0.10;;;;;;;;;;5016621;28;20048;-82
2023/08/28 05:15:19;;;;;;;0.20;0.10;;;;;;;;;;5000278;28;20045;-82
2023/08/28 05:17:46;;;;;;;0.38;0.30;;;;;;;;;;5000573;28;20048;-82
2023/08/28 05:20:12;;;;;;;0.20;0.10;;;;;;;;;;5018178;28;20044;-82
2023/08/28 05:22:38;;;;;;;0.45;0.40;;;;;;;;;;5001243;28;20159;-82
2023/08/28 05:25:04;;;;;;;0.20;0.10;;;;;;;;;;5002749;28;20537;-81
2023/08/28 05:27:30;;;;;;;0.40;0.20;;;;;;;;;;5019456;28;20068;-82
2023/08/28 05:29:56;;;;;;;0.28;0.17;;;;;;;;;;4997068;28;20044;-82
2023/08/28 05:32:22;;;;;;;0.38;0.25;;;;;;;;;;5013248;28;20040;-82
2023/08/28 05:34:48;;;;;;;0.20;0.10;;;;;;;;;;5018202;28;20037;-82
2023/08/28 05:37:14;;;;;;;0.20;0.10;;;;;;;;;;4996463;28;20044;-83
2023/08/28 05:39:40;;;;;;;0.50;0.35;;;;;;;;;;5002032;28;20038;-82
2023/08/28 05:42:07;;;;;;;0.20;0.10;;;;;;;;;;5002408;28;20045;-82
2023/08/28 05:44:33;;;;;;;0.20;0.15;;;;;;;;;;5004622;28;20033;-82
2023/08/28 05:46:59;;;;;;;0.20;0.10;;;;;;;;;;5013213;28;20061;-82
2023/08/28 05:49:25;;;;;;;0.20;0.10;;;;;;;;;;5013755;28;20048;-81
2023/08/28 05:51:51;;;;;;;0.65;0.43;;;;;;;;;;5015776;28;20041;-81
2023/08/28 05:54:17;;;;;;;0.30;0.15;;;;;;;;;;4995526;28;20517;-82
2023/08/28 05:56:43;;;;;;;0.20;0.10;;;;;;;;;;5000218;28;20041;-82
2023/08/28 05:59:09;;;;;;;0.20;0.10;;;;;;;;;;4997576;28;20752;-81
2023/08/28 06:01:35;;;;;;;0.20;0.10;;;;;;;;;;5016092;28;20080;-83
2023/08/28 06:04:02;;;;;;;0.20;0.05;;;;;;;;;;4997861;28;20057;-84
2023/08/28 06:06:28;;;;;;;0.20;0.10;;;;;;;;;;5015329;28;20045;-80
2023/08/28 06:08:54;;;;;;;0.20;0.08;;;;;;;;;;5014658;28;20327;-81
2023/08/28 06:11:20;;;;;;;0.25;0.20;;;;;;;;;;5017205;28;20522;-82
2023/08/28 06:13:46;;;;;;;0.20;0.10;;;;;;;;;;4998877;28;20052;-82
2023/08/28 06:16:12;;;;;;;0.20;0.10;;;;;;;;;;5006114;28;20037;-83
2023/08/28 06:18:39;;;;;;;0.20;0.10;;;;;;;;;;5007728;28;20041;-81
2023/08/28 06:21:05;;;;;;;0.32;0.28;;;;;;;;;;5042193;28;20496;-82
2023/08/28 06:23:31;;;;;;;0.20;0.05;;;;;;;;;;5015691;28;20181;-82
2023/08/28 06:25:58;;;;;;;0.30;0.20;;;;;;;;;;5018509;28;20517;-81
2023/08/28 06:28:24;;;;;;;0.20;0.17;;;;;;;;;;5015575;28;20278;-82
2023/08/28 06:30:51;;;;;;;0.20;0.10;;;;;;;;;;5004121;28;20095;-81
2023/08/28 06:33:17;;;;;;;0.20;0.10;;;;;;;;;;4999389;28;20099;-82
2023/08/28 06:35:43;;;;;;;0.20;0.10;;;;;;;;;;4995767;28;20041;-81
2023/08/28 06:38:09;;;;;;;0.20;0.10;;;;;;;;;;5033560;28;20073;-80
2023/08/28 06:40:35;;;;;;;0.20;0.10;;;;;;;;;;4998449;28;20059;-82
2023/08/28 06:43:01;;;;;;;0.20;0.20;;;;;;;;;;4996837;28;20430;-82
2023/08/28 06:45:27;;;;;;;0.20;0.10;;;;;;;;;;4999583;28;20030;-81
2023/08/28 06:47:53;;;;;;;0.20;0.10;;;;;;;;;;5013778;28;20041;-82
2023/08/28 06:50:19;;;;;;;0.20;0.10;;;;;;;;;;5019528;28;20066;-82
2023/08/28 06:52:45;;;;;;;0.20;0.00;;;;;;;;;;5000577;28;20036;-80
2023/08/28 06:55:11;;;;;;;0.20;0.00;;;;;;;;;;5005853;28;20037;-79
2023/08/28 06:57:37;;;;;;;0.20;0.10;;;;;;;;;;5025004;28;20037;-80
2023/08/28 07:00:03;;;;;;;0.20;0.10;;;;;;;;;;5004782;28;20033;-81
2023/08/28 07:02:31;;;;;;;0.20;0.10;;;;;;;;;;5017925;28;20561;-81
2023/08/28 07:04:57;;;;;;;0.20;0.10;;;;;;;;;;5004382;28;20408;-80
2023/08/28 07:07:23;;;;;;;0.20;0.10;;;;;;;;;;5009729;28;20143;-82
2023/08/28 07:09:49;;;;;;;0.20;0.20;;;;;;;;;;5003552;28;20045;-81
2023/08/28 07:12:15;;;;;;;0.20;0.00;;;;;;;;;;5000536;28;20037;-83
2023/08/28 07:14:41;;;;;;;0.20;0.10;;;;;;;;;;5039529;28;20046;-81
2023/08/28 07:17:07;;;;;;;0.20;0.10;;;;;;;;;;5008016;28;20040;-81
2023/08/28 07:19:33;;;;;;;0.20;0.10;;;;;;;;;;5002589;28;20033;-81
2023/08/28 07:22:00;;;;;;;0.38;0.28;;;;;;;;;;5015021;28;20033;-82
2023/08/28 07:24:26;;;;;;;0.30;0.20;;;;;;;;;;5021672;28;20037;-79
2023/08/28 07:26:52;;;;;;;0.20;0.08;;;;;;;;;;5021907;28;20037;-82
2023/08/28 07:29:18;;;;;;;0.20;0.10;;;;;;;;;;5002105;28;20037;-80
2023/08/28 07:31:45;;;;;;;0.20;0.05;;;;;;;;;;5025674;28;20037;-81
2023/08/28 07:34:11;;;;;;;0.20;0.08;;;;;;;;;;5008632;28;20053;-82
2023/08/28 07:36:40;;;;;;;0.20;0.10;;;;;;;;;;5022225;28;20137;-82
2023/08/28 07:39:06;;;;;;;0.40;0.20;;;;;;;;;;5015710;28;20049;-82
2023/08/28 07:41:32;;;;;;;0.20;0.10;;;;;;;;;;5016569;28;20049;-82
2023/08/28 07:43:58;;;;;;;0.20;0.10;;;;;;;;;;4995025;28;20052;-82
2023/08/28 07:46:25;;;;;;;0.20;0.10;;;;;;;;;;5020697;28;20522;-83
2023/08/28 07:48:51;;;;;;;0.20;0.13;;;;;;;;;;5004875;28;20070;-83
2023/08/28 07:51:17;;;;;;;0.20;0.10;;;;;;;;;;4993049;28;20051;-84
2023/08/28 07:53:43;;;;;;;0.20;0.10;;;;;;;;;;4999030;28;20490;-82
2023/08/28 07:56:10;;;;;;;0.20;0.00;;;;;;;;;;5021092;28;20044;-84
2023/08/28 07:58:39;;;;;;;0.20;0.00;;;;;;;;;;5005962;28;20033;-83
2023/08/28 08:01:14;;;;;;;0.20;0.10;;;;;;;;;;5018923;28;20049;-84
2023/08/28 08:03:40;;;;;;;0.20;0.10;;;;;;;;;;5031569;28;20029;-81
2023/08/28 08:06:10;;;;;;;0.20;0.00;;;;;;;;;;5003757;28;20034;-83
2023/08/28 08:08:40;;;;;;;0.20;0.10;;;;;;;;;;5001495;28;20056;-84
2023/08/28 08:11:12;;;;;;;0.20;0.10;;;;;;;;;;5016909;28;20040;-84
2023/08/28 08:13:39;;;;;;;0.20;0.10;;;;;;;;;;5002296;28;20068;-84
2023/08/28 08:16:05;;;;;;;0.30;0.20;;;;;;;;;;5002155;28;20490;-85
2023/08/28 08:18:44;;;;;;;0.32;0.32;;;;;;;;;;5015569;28;20036;-82
2023/08/28 08:21:13;;;;;;;0.20;0.10;;;;;;;;;;5023197;23;20305;-83
2023/08/28 08:23:39;;;;;;;0.20;0.10;;;;;;;;;;5035875;28;20452;-84
2023/08/28 08:26:05;;;;;;;0.20;0.10;;;;;;;;;;5022192;28;20060;-84
2023/08/28 08:28:32;;;;;;;0.20;0.10;;;;;;;;;;5042992;28;20387;-81
2023/08/28 08:30:58;;;;;;;0.20;0.10;;;;;;;;;;5012644;28;20037;-82
2023/08/28 08:33:24;;;;;;;0.20;0.05;;;;;;;;;;5003531;28;20502;-82
2023/08/28 08:35:50;;;;;;;0.20;0.10;;;;;;;;;;5005747;28;20109;-81
2023/08/28 08:38:17;;;;;;;0.20;0.10;;;;;;;;;;5020929;28;20042;-83
2023/08/28 08:40:43;;;;;;;0.20;0.00;;;;;;;;;;5011209;28;20339;-84
2023/08/28 08:43:09;;;;;;;0.20;0.10;;;;;;;;;;5020723;28;20033;-83
2023/08/28 08:45:37;;;;;;;0.20;0.00;;;;;;;;;;5040552;28;20045;-83
2023/08/28 08:48:06;;;;;;;0.20;0.10;;;;;;;;;;5015868;28;20514;-83
2023/08/28 08:50:35;;;;;;;0.20;0.10;;;;;;;;;;5005270;28;20052;-82
2023/08/28 08:53:16;;;;;;;0.20;0.00;;;;;;;;;;5019404;28;20033;-82
2023/08/28 08:55:49;;;;;;;0.20;0.00;;;;;;;;;;5020729;28;20045;-84
2023/08/28 08:58:26;;;;;;;;;;;;;;;;;;;;;
2023/08/28 09:00:53;;;;;;;0.20;0.00;;;;;;;;;;5016069;28;20095;-84
2023/08/28 09:03:19;;;;;;;0.20;0.00;;;;;;;;;;5003305;28;20037;-84
2023/08/28 09:05:46;;;;;;;0.20;0.00;;;;;;;;;;5003320;28;20076;-82
2023/08/28 09:08:13;;;;;;;0.20;0.10;;;;;;;;;;5019901;28;20033;-85
2023/08/28 09:10:39;;;;;;;0.20;0.00;;;;;;;;;;5004860;28;20037;-84
2023/08/28 09:13:06;;;;;;;0.20;0.10;;;;;;;;;;5001268;28;20048;-84
2023/08/28 09:15:32;;;;;;;0.20;0.00;;;;;;;;;;5036289;28;20037;-83
2023/08/28 09:18:00;;;;;;;0.20;0.08;;;;;;;;;;5006304;28;20037;-85
2023/08/28 09:20:26;;;;;;;0.45;0.20;;;;;;;;;;5003168;28;20056;-85
2023/08/28 09:22:53;;;;;;;0.20;0.10;;;;;;;;;;4998531;28;20045;-84
2023/08/28 09:25:20;;;;;;;0.20;0.10;;;;;;;;;;5005568;28;20121;-82
2023/08/28 09:27:47;;;;;;;0.20;0.10;;;;;;;;;;5020761;28;20140;-84
2023/08/28 09:30:36;;;;;;;0.20;0.10;;;;;;;;;;5016243;28;20037;-84
2023/08/28 09:33:04;;;;;;;0.20;0.10;;;;;;;;;;5020537;28;20056;-84
2023/08/28 09:35:37;;;;;;;0.20;0.10;;;;;;;;;;5005383;28;20087;-84
2023/08/28 09:38:03;;;;;;;0.20;0.10;;;;;;;;;;5021751;28;20060;-84
2023/08/28 09:40:33;;;;;;;0.20;0.10;;;;;;;;;;5016411;28;20037;-84
2023/08/28 09:42:59;;;;;;;0.20;0.20;;;;;;;;;;5021732;28;20116;-84
2023/08/28 09:45:33;;;;;;;0.20;0.10;;;;;;;;;;5003133;28;20041;-83
2023/08/28 09:47:59;;;;;;;0.20;0.10;;;;;;;;;;5020317;28;20533;-85
2023/08/28 09:50:29;;;;;;;0.20;0.00;;;;;;;;;;5035778;28;20047;-84
2023/08/28 09:52:55;;;;;;;0.20;0.10;;;;;;;;;;5003092;28;20041;-84
2023/08/28 09:55:21;;;;;;;0.20;0.10;;;;;;;;;;5020472;28;20037;-84
2023/08/28 09:57:49;;;;;;;0.30;0.30;;;;;;;;;;4999528;28;20518;-83
2023/08/28 10:00:15;;;;;;;0.20;0.10;;;;;;;;;;5003479;28;20033;-83
2023/08/28 10:02:44;;;;;;;0.25;0.20;;;;;;;;;;5019675;28;20057;-82
2023/08/28 10:05:10;;;;;;;0.20;0.10;;;;;;;;;;5003372;28;20136;-84
2023/08/28 10:07:39;;;;;;;0.20;0.10;;;;;;;;;;5018806;28;20038;-84
2023/08/28 10:10:07;;;;;;;0.20;0.10;;;;;;;;;;5018086;28;20104;-82
2023/08/28 10:12:33;;;;;;;0.20;0.10;;;;;;;;;;5003993;28;20049;-84
2023/08/28 10:15:01;;;;;;;0.20;0.00;;;;;;;;;;5004128;28;20049;-84
2023/08/28 10:17:28;;;;;;;0.20;0.10;;;;;;;;;;5011809;28;20038;-85
2023/08/28 10:19:57;;;;;;;0.20;0.15;;;;;;;;;;5020007;28;20364;-85
2023/08/28 10:22:24;;;;;;;0.20;0.10;;;;;;;;;;5017197;28;20071;-86
2023/08/28 10:24:56;;;;;;;0.20;0.10;;;;;;;;;;5003545;28;20048;-85
2023/08/28 10:27:28;;;;;;;0.20;0.10;;;;;;;;;;5018509;28;20120;-83
2023/08/28 10:29:54;;;;;;;0.20;0.10;;;;;;;;;;5018943;28;20562;-85
2023/08/28 10:32:21;;;;;;;0.20;0.10;;;;;;;;;;5019074;28;20556;-85
2023/08/28 10:34:48;;;;;;;0.20;0.00;;;;;;;;;;5003481;28;20061;-85
2023/08/28 10:37:16;;;;;;;0.20;0.00;;;;;;;;;;5004343;28;20044;-84
2023/08/28 10:39:43;;;;;;;0.20;0.10;;;;;;;;;;5004658;28;20088;-86
2023/08/28 10:42:10;;;;;;;0.20;0.10;;;;;;;;;;5017163;28;20513;-86
2023/08/28 10:44:36;;;;;;;0.30;0.30;;;;;;;;;;5002407;28;20061;-83
2023/08/28 10:47:02;;;;;;;0.20;0.10;;;;;;;;;;4998671;28;20045;-84
2023/08/28 10:49:31;;;;;;;0.20;0.00;;;;;;;;;;5003378;28;20041;-86
2023/08/28 10:52:01;;;;;;;0.20;0.10;;;;;;;;;;5003493;28;21134;-85
2023/08/28 10:54:36;;;;;;;0.20;0.10;;;;;;;;;;5015007;28;20047;-85
2023/08/28 10:57:05;;;;;;;0.20;0.00;;;;;;;;;;5027214;28;20045;-85
2023/08/28 10:59:41;;;;;;;0.20;0.10;;;;;;;;;;5003417;28;20052;-86
2023/08/28 11:02:09;;;;;;;0.20;0.08;;;;;;;;;;5016475;28;20045;-84
2023/08/28 11:04:36;;;;;;;0.20;0.10;;;;;;;;;;5000758;28;20041;-84
2023/08/28 11:07:02;;;;;;;0.20;0.10;;;;;;;;;;5013920;28;20044;-85
2023/08/28 11:09:35;;;;;;;0.20;0.10;;;;;;;;;;5019102;28;20044;-85
2023/08/28 11:12:01;;;;;;;0.20;0.10;;;;;;;;;;5003462;28;20089;-84
2023/08/28 11:14:56;;;;;;;0.20;0.00;;;;;;;;;;5002932;28;20504;-84
2023/08/28 11:17:23;;;;;;;0.20;0.08;;;;;;;;;;5035901;28;20033;-86
2023/08/28 11:19:55;;;;;;;0.20;0.10;;;;;;;;;;5014892;28;20048;-85
2023/08/28 11:22:35;;;;;;;0.20;0.10;;;;;;;;;;5016407;28;20073;-83
2023/08/28 11:25:04;;;;;;;0.20;0.10;;;;;;;;;;5009777;28;20037;-84
2023/08/28 11:27:32;;;;;;;0.20;0.00;;;;;;;;;;5003820;28;20147;-83
2023/08/28 11:30:04;;;;;;;0.20;0.10;;;;;;;;;;5034528;28;20535;-86
2023/08/28 11:32:31;;;;;;;0.20;0.05;;;;;;;;;;4996116;28;20049;-86
2023/08/28 11:35:01;;;;;;;0.20;0.00;;;;;;;;;;5001860;28;20044;-85
2023/08/28 11:37:34;;;;;;;0.28;0.17;;;;;;;;;;5015266;28;20083;-85
2023/08/28 11:40:00;;;;;;;0.20;0.10;;;;;;;;;;5000078;28;20088;-85
2023/08/28 11:42:26;;;;;;;0.20;0.10;;;;;;;;;;5017796;28;20042;-86
2023/08/28 11:44:52;;;;;;;0.20;0.05;;;;;;;;;;5018779;28;20030;-85
2023/08/28 11:47:34;;;;;;;0.20;0.10;;;;;;;;;;5003698;28;20069;-85
2023/08/28 11:50:03;;;;;;;0.20;0.10;;;;;;;;;;5017528;28;20041;-85
2023/08/28 11:52:30;;;;;;;0.20;0.08;;;;;;;;;;5019014;28;20060;-85
2023/08/28 11:55:00;;;;;;;0.20;0.05;;;;;;;;;;5002779;28;20047;-83
2023/08/28 11:57:26;;;;;;;0.20;0.10;;;;;;;;;;5015912;28;20399;-85
2023/08/28 11:59:55;;;;;;;0.20;0.10;;;;;;;;;;5000861;28;20099;-85
2023/08/28 12:02:21;;;;;;;0.20;0.10;;;;;;;;;;5001549;28;20453;-86
2023/08/28 12:04:53;;;;;;;0.20;0.00;;;;;;;;;;5001466;28;20045;-86
2023/08/28 12:07:19;;;;;;;;;;;;;;;;;;5028428;28;20112;-87
2023/08/28 12:09:48;;;;;;;0.20;0.10;;;;;;;;;;5017511;28;20032;-83
2023/08/28 12:12:15;;;;;;;0.20;0.00;;;;;;;;;;5000073;28;20068;-85
2023/08/28 12:14:45;;;;;;;0.20;0.10;;;;;;;;;;5002215;28;20041;-85
2023/08/28 12:17:18;;;;;;;0.20;0.10;;;;;;;;;;5000134;28;20056;-84
2023/08/28 12:19:46;;;;;;;0.20;0.10;;;;;;;;;;5030328;28;20541;-86
2023/08/28 12:22:14;;;;;;;0.20;0.10;;;;;;;;;;5020522;28;20398;-84
2023/08/28 12:24:45;;;;;;;0.20;0.10;;;;;;;;;;5018569;28;20783;-85
2023/08/28 12:27:12;;;;;;;0.20;0.10;;;;;;;;;;5002141;28;20037;-87
2023/08/28 12:29:41;;;;;;;0.20;0.00;;;;;;;;;;5001999;28;20127;-85
2023/08/28 12:32:08;;;;;;;0.20;0.10;;;;;;;;;;5032552;28;20045;-86
2023/08/28 12:34:37;;;;;;;0.20;0.05;;;;;;;;;;5015213;28;20124;-87
2023/08/28 12:37:21;;;;;;;0.20;0.00;;;;;;;;;;5018592;28;20438;-87
2023/08/28 12:39:48;;;;;;;0.20;0.10;;;;;;;;;;5019244;28;20044;-85
2023/08/28 12:42:15;;;;;;;0.20;0.10;;;;;;;;;;5016471;28;20041;-86
2023/08/28 12:44:45;;;;;;;0.20;0.10;;;;;;;;;;5004666;28;20041;-84
2023/08/28 12:47:11;;;;;;;0.20;0.00;;;;;;;;;;5020523;28;20124;-85
2023/08/28 12:49:39;;;;;;;0.20;0.10;;;;;;;;;;5005207;28;20685;-87
2023/08/28 12:52:06;;;;;;;0.20;0.10;;;;;;;;;;5004499;28;20041;-84
2023/08/28 12:54:40;;;;;;;0.20;0.00;;;;;;;;;;5019262;28;20049;-85
2023/08/28 12:57:07;;;;;;;0.20;0.10;;;;;;;;;;5006232;28;20071;-86
2023/08/28 12:59:36;;;;;;;0.20;0.00;;;;;;;;;;5004593;28;20041;-87
2023/08/28 13:02:03;;;;;;;0.20;0.10;;;;;;;;;;5003095;28;22665;-88
2023/08/28 13:04:32;;;;;;;0.20;0.10;;;;;;;;;;5006116;28;20041;-88
2023/08/28 13:07:00;;;;;;;0.20;0.10;;;;;;;;;;5014781;28;20494;-86
2023/08/28 13:09:26;;;;;;;0.20;0.10;;;;;;;;;;5005535;28;20103;-84
2023/08/28 13:11:53;;;;;;;0.20;0.10;;;;;;;;;;5021805;28;20038;-83
2023/08/28 13:14:24;;;;;;;0.20;0.10;;;;;;;;;;5005065;28;20034;-86
2023/08/28 13:16:53;;;;;;;0.20;0.03;;;;;;;;;;5020063;28;20045;-86
2023/08/28 13:19:21;;;;;;;0.20;0.10;;;;;;;;;;5001080;28;23144;-84
2023/08/28 13:21:52;;;;;;;0.20;0.00;;;;;;;;;;5021276;28;20496;-86
2023/08/28 13:24:24;;;;;;;0.20;0.10;;;;;;;;;;5023306;28;20107;-85
2023/08/28 13:26:50;;;;;;;0.20;0.00;;;;;;;;;;5001297;28;20446;-86
2023/08/28 13:29:16;;;;;;;0.20;0.10;;;;;;;;;;5007301;28;20538;-85
2023/08/28 13:31:42;;;;;;;0.20;0.05;;;;;;;;;;5021723;28;20128;-84
2023/08/28 13:34:08;;;;;;;0.20;0.10;;;;;;;;;;5016281;28;20072;-85
2023/08/28 13:36:37;;;;;;;0.20;0.10;;;;;;;;;;5020423;28;20103;-86
2023/08/28 13:39:09;;;;;;;0.20;0.08;;;;;;;;;;5006011;28;20053;-84
2023/08/28 13:41:37;;;;;;;0.20;0.10;;;;;;;;;;5000811;28;20057;-83
2023/08/28 13:44:04;;;;;;;0.20;0.10;;;;;;;;;;5006346;28;20040;-86
2023/08/28 13:46:33;;;;;;;0.20;0.00;;;;;;;;;;5007017;28;20076;-87
2023/08/28 13:48:59;;;;;;;0.20;0.10;;;;;;;;;;5000638;28;20045;-84
2023/08/28 13:51:28;;;;;;;0.20;0.10;;;;;;;;;;5015435;28;20088;-84
2023/08/28 13:53:54;;;;;;;0.20;0.00;;;;;;;;;;5006008;28;20095;-85
2023/08/28 13:56:27;;;;;;;0.20;0.10;;;;;;;;;;5004401;28;20068;-88
2023/08/28 13:58:53;;;;;;;0.20;0.10;;;;;;;;;;5018751;28;20037;-87
2023/08/28 14:01:20;;;;;;;0.20;0.08;;;;;;;;;;5004263;28;20041;-86
2023/08/28 14:03:46;;;;;;;0.20;0.00;;;;;;;;;;5003773;28;20044;-85
2023/08/28 14:06:12;;;;;;;0.20;0.10;;;;;;;;;;5004155;28;20887;-85
2023/08/28 14:08:38;;;;;;;0.20;0.10;;;;;;;;;;5021273;28;20068;-84
2023/08/28 14:11:05;;;;;;;0.20;0.10;;;;;;;;;;5021499;28;20045;-86
2023/08/28 14:13:31;;;;;;;0.20;0.10;;;;;;;;;;5004550;28;20187;-85
2023/08/28 14:15:58;;;;;;;0.20;0.10;;;;;;;;;;5000681;28;20139;-85
2023/08/28 14:18:24;;;;;;;0.20;0.10;;;;;;;;;;5012419;28;20148;-85
2023/08/28 14:20:53;;;;;;;0.20;0.10;;;;;;;;;;5040640;22;20081;-83
2023/08/28 14:23:20;;;;;;;0.20;0.10;;;;;;;;;;5032752;28;20033;-83
2023/08/28 14:26:02;;;;;;;0.20;0.10;;;;;;;;;;5032173;28;20041;-84
2023/08/28 14:28:28;;;;;;;0.20;0.05;;;;;;;;;;5065200;28;20080;-82
2023/08/28 14:30:54;;;;;;;0.20;0.10;;;;;;;;;;5029846;28;20037;-82
2023/08/28 14:33:20;;;;;;;0.20;0.00;;;;;;;;;;5003537;28;20152;-81
2023/08/28 14:35:47;;;;;;;0.20;0.10;;;;;;;;;;5025411;28;20045;-83
2023/08/28 14:38:16;;;;;;;0.20;0.10;;;;;;;;;;5014972;28;20049;-81
2023/08/28 14:40:42;;;;;;;0.20;0.10;;;;;;;;;;5031383;28;20037;-82
2023/08/28 14:43:08;;;;;;;0.20;0.00;;;;;;;;;;5018972;28;20401;-84
2023/08/28 14:45:36;;;;;;;0.20;0.10;;;;;;;;;;5016238;28;20120;-84